Time;durP1;ratioP1;P1;durP2;ratioP2;P2;SDS_P1;SDS_P2;PMS_P1;PMS_P2;Temp;Humidity;BMP_temperature;BMP_pressure;BME280_temperature;BME280_humidity;BME280_pressure;Samples;Min_cycle;Max_cycle;Signal;HPM_P1;HPM_P2
2022/03/22 00:01:22;;;;;;;22.23;13.52;;;;;;;4.44;100.00;102316.22;5977628;29;20046;-91
2022/03/22 00:04:24;;;;;;;21.48;12.68;;;;;;;4.43;97.93;102318.84;5997613;29;20045;-91
2022/03/22 00:07:27;;;;;;;20.35;13.50;;;;;;;4.39;97.30;102315.50;5992128;29;20053;-91
2022/03/22 00:10:29;;;;;;;21.40;12.73;;;;;;;4.38;96.69;102311.28;5981337;29;20054;-91
2022/03/22 00:13:30;;;;;;;23.15;13.27;;;;;;;4.39;98.03;102312.94;5994209;29;20042;-91
2022/03/22 00:16:33;;;;;;;22.52;13.32;;;;;;;4.37;96.29;102312.13;6003634;29;20050;-91
2022/03/22 00:19:55;;;;;;;20.13;12.65;;;;;;;4.47;92.55;102313.63;5985970;29;20680;-91
2022/03/22 00:22:58;;;;;;;20.20;12.43;;;;;;;4.52;91.61;102313.47;5994785;29;20046;-91
2022/03/22 00:26:00;;;;;;;20.50;12.95;;;;;;;4.51;90.69;102317.75;5999961;29;20500;-91
2022/03/22 00:29:04;;;;;;;21.83;12.85;;;;;;;4.60;90.29;102315.88;5993416;29;20105;-91
2022/03/22 00:32:08;;;;;;;21.42;12.38;;;;;;;4.59;89.09;102320.13;5994505;29;20051;-91
2022/03/22 00:35:10;;;;;;;23.63;11.88;;;;;;;4.55;89.76;102313.41;5989371;29;20590;-91
2022/03/22 00:38:16;;;;;;;19.92;12.20;;;;;;;4.58;86.29;102315.91;5999513;29;20054;-91
2022/03/22 00:41:19;;;;;;;18.50;11.80;;;;;;;4.67;84.55;102312.25;5981025;29;20060;-91
2022/03/22 00:44:22;;;;;;;20.73;12.38;;;;;;;4.68;85.04;102308.81;5980440;29;20061;-91
2022/03/22 00:47:25;;;;;;;19.33;12.48;;;;;;;4.74;82.88;102313.78;5992479;29;20081;-91
2022/03/22 00:50:30;;;;;;;22.13;11.95;;;;;;;4.64;84.35;102310.59;5997104;29;20042;-91
2022/03/22 00:53:32;;;;;;;21.20;12.48;;;;;;;4.79;83.01;102313.66;5975573;29;20057;-91
2022/03/22 00:56:34;;;;;;;18.95;11.85;;;;;;;4.73;82.21;102307.81;5999240;29;20053;-91
2022/03/22 01:02:59;;;;;;;20.20;12.48;;;;;;;4.92;79.36;102312.47;5985995;29;20793;-91
2022/03/22 01:06:01;;;;;;;19.08;12.25;;;;;;;4.80;80.04;102305.09;5993930;29;20456;-91
2022/03/22 01:09:03;;;;;;;18.23;11.93;;;;;;;4.71;81.36;102304.44;5990824;29;20126;-91
2022/03/22 01:12:06;;;;;;;20.08;11.52;;;;;;;4.69;79.41;102303.63;5988834;29;20684;-91
2022/03/22 01:15:20;;;;;;;16.52;10.50;;;;;;;4.73;80.00;102299.28;5992603;29;20053;-91
2022/03/22 01:18:25;;;;;;;17.65;11.95;;;;;;;4.82;79.76;102299.06;5995047;29;20050;-91
2022/03/22 01:21:28;;;;;;;21.83;12.27;;;;;;;4.72;78.84;102293.31;5963627;29;20046;-91
2022/03/22 01:24:30;;;;;;;16.63;11.18;;;;;;;4.65;79.11;102296.09;5983062;29;20774;-91
2022/03/22 01:27:32;;;;;;;18.52;11.18;;;;;;;4.59;78.41;102302.19;5982828;29;20053;-91
2022/03/22 01:30:36;;;;;;;15.98;10.40;;;;;;;4.60;78.52;102300.50;6004136;29;20045;-91
2022/03/22 01:33:38;;;;;;;17.30;11.50;;;;;;;4.53;79.76;102299.78;5998862;29;20301;-91
2022/03/22 01:36:40;;;;;;;20.73;12.07;;;;;;;4.52;81.01;102301.53;5984484;29;20046;-91
2022/03/22 01:39:41;;;;;;;20.38;11.55;;;;;;;4.50;82.71;102294.75;5977192;29;20404;-91
2022/03/22 01:42:44;;;;;;;18.88;11.93;;;;;;;4.39;81.70;102297.56;5982512;29;20062;-91
2022/03/22 01:45:48;;;;;;;21.40;12.82;;;;;;;4.32;83.25;102296.88;6004035;29;20053;-91
2022/03/22 01:48:52;;;;;;;19.65;12.80;;;;;;;4.28;82.68;102299.56;5980614;29;20506;-91
2022/03/22 01:51:54;;;;;;;21.40;12.35;;;;;;;4.45;81.03;102292.28;6002598;29;20090;-91
2022/03/22 01:54:56;;;;;;;22.25;12.63;;;;;;;4.39;81.31;102295.00;6001611;29;20419;-91
2022/03/22 01:57:58;;;;;;;18.90;11.52;;;;;;;4.39;81.57;102286.47;5995345;29;20098;-91
2022/03/22 02:07:44;;;;;;;19.08;12.15;;;;;;;4.29;83.67;102279.00;5988911;29;20507;-91
2022/03/22 02:10:47;;;;;;;20.00;12.77;;;;;;;4.19;85.06;102274.97;5995368;29;20053;-91
2022/03/22 02:13:50;;;;;;;18.85;12.07;;;;;;;4.16;85.09;102272.50;6003140;29;20754;-91
2022/03/22 02:16:52;;;;;;;20.65;11.57;;;;;;;4.14;89.49;102270.84;6002265;29;20050;-91
2022/03/22 02:19:54;;;;;;;20.65;12.57;;;;;;;4.08;86.30;102267.53;6001560;29;20048;-91
2022/03/22 02:23:28;;;;;;;19.42;11.77;;;;;;;4.07;87.80;102267.56;6002689;29;20126;-91
2022/03/22 02:26:30;;;;;;;17.77;11.35;;;;;;;4.04;87.72;102262.53;5993485;29;20075;-91
2022/03/22 02:29:32;;;;;;;20.17;11.90;;;;;;;4.02;88.67;102260.00;5984989;29;20484;-91
2022/03/22 02:32:33;;;;;;;19.77;11.98;;;;;;;4.03;85.00;102264.25;5996049;29;20045;-91
2022/03/22 02:35:39;;;;;;;18.50;11.20;;;;;;;4.09;87.10;102258.97;5982838;29;20046;-91
2022/03/22 02:38:41;;;;;;;21.00;11.93;;;;;;;4.13;84.68;102261.47;6001359;29;20050;-91
2022/03/22 02:41:45;;;;;;;19.88;11.63;;;;;;;4.09;84.73;102258.97;5988266;29;20132;-91
2022/03/22 02:44:47;;;;;;;18.95;11.52;;;;;;;4.19;83.63;102269.84;5975276;29;20054;-91
2022/03/22 02:47:49;;;;;;;20.98;12.38;;;;;;;4.06;83.97;102259.03;5983989;29;20046;-91
2022/03/22 02:50:51;;;;;;;18.95;12.43;;;;;;;4.02;88.30;102256.59;5983859;29;20047;-91
2022/03/22 02:53:54;;;;;;;21.23;12.38;;;;;;;4.09;85.19;102261.53;5998151;29;20057;-91
2022/03/22 02:56:55;;;;;;;18.23;11.27;;;;;;;4.03;85.03;102261.69;6009467;29;20053;-91
2022/03/22 02:59:57;;;;;;;19.67;11.95;;;;;;;3.99;86.76;102260.06;5999519;29;20042;-90
2022/03/22 03:02:59;;;;;;;19.35;11.23;;;;;;;3.97;88.08;102264.38;5975795;29;20065;-91
2022/03/22 03:06:01;;;;;;;19.20;11.80;;;;;;;3.97;87.59;102264.38;5985941;29;20042;-91
2022/03/22 03:09:03;;;;;;;20.75;12.23;;;;;;;4.02;85.56;102264.28;6000528;29;20122;-91
2022/03/22 03:12:08;;;;;;;16.45;11.02;;;;;;;4.08;83.82;102262.41;5998502;29;20046;-91
2022/03/22 03:15:11;;;;;;;19.77;11.40;;;;;;;3.99;84.29;102265.19;5999943;29;20067;-91
2022/03/22 03:18:13;;;;;;;20.13;12.35;;;;;;;4.01;84.55;102265.16;5984409;29;20058;-91
2022/03/22 03:21:14;;;;;;;18.70;11.80;;;;;;;4.01;82.80;102258.31;6001341;29;20126;-91
2022/03/22 03:24:16;;;;;;;20.83;12.65;;;;;;;3.95;84.44;102267.84;5987447;29;20050;-91
2022/03/22 03:27:18;;;;;;;20.20;11.45;;;;;;;3.86;86.58;102268.94;6002296;29;20038;-91
2022/03/22 03:30:21;;;;;;;19.92;11.35;;;;;;;3.87;84.54;102273.16;6000838;29;20042;-91
2022/03/22 03:33:24;;;;;;;18.35;12.00;;;;;;;3.87;85.95;102262.91;5984219;29;20053;-91
2022/03/22 03:36:25;;;;;;;21.90;11.80;;;;;;;3.86;84.04;102269.75;5987620;29;20132;-91
2022/03/22 03:39:28;;;;;;;19.95;11.52;;;;;;;3.78;86.55;102268.28;6012539;29;20057;-91
2022/03/22 03:42:30;;;;;;;19.15;12.00;;;;;;;3.71;87.40;102269.28;6009163;29;20055;-91
2022/03/22 03:49:12;;;;;;;20.38;11.27;;;;;;;3.76;83.78;102278.53;5974557;29;20329;-91
2022/03/22 03:52:17;;;;;;;19.40;11.13;;;;;;;3.69;84.58;102284.66;5975875;29;20565;-91
2022/03/22 03:55:19;;;;;;;18.42;10.93;;;;;;;3.72;87.44;102281.19;5973257;29;20054;-91
2022/03/22 03:58:21;;;;;;;21.40;11.77;;;;;;;3.82;82.34;102280.09;5959675;29;20530;-91
2022/03/22 04:01:22;;;;;;;16.80;10.55;;;;;;;3.82;83.64;102277.53;5976059;29;20058;-91
2022/03/22 04:04:25;;;;;;;19.38;11.65;;;;;;;3.82;84.66;102272.44;5941535;29;20046;-91
2022/03/22 04:07:27;;;;;;;17.38;11.40;;;;;;;3.72;86.99;102281.19;5958908;29;20046;-91
2022/03/22 04:10:30;;;;;;;20.58;11.07;;;;;;;3.67;88.22;102282.13;5959422;29;20057;-91
2022/03/22 04:13:32;;;;;;;16.73;11.50;;;;;;;3.63;86.25;102279.69;5968851;29;20066;-91
2022/03/22 04:16:34;;;;;;;19.83;11.13;;;;;;;3.65;86.68;102288.16;5973753;29;20059;-92
2022/03/22 04:19:37;;;;;;;19.63;11.35;;;;;;;3.66;85.82;102284.75;5990216;29;20106;-91
2022/03/22 04:22:39;;;;;;;19.90;11.30;;;;;;;3.73;83.65;102291.41;5995518;29;20070;-91
2022/03/22 04:25:40;;;;;;;19.52;11.70;;;;;;;3.73;82.66;102288.03;5991285;29;20049;-91
2022/03/22 04:35:27;;;;;;;;;;;;;;;3.60;86.32;102290.84;6000165;29;20132;-91
2022/03/22 04:38:29;;;;;;;18.15;11.10;;;;;;;3.52;90.32;102292.69;5984101;29;19984;-91
2022/03/22 04:41:31;;;;;;;19.92;11.48;;;;;;;3.59;89.40;102295.97;5989540;29;20772;-91
2022/03/22 04:44:34;;;;;;;17.67;11.38;;;;;;;3.70;85.47;102293.19;5998820;29;20065;-91
2022/03/22 04:47:36;;;;;;;22.42;11.90;;;;;;;3.61;86.50;102301.91;5994204;29;20128;-91
2022/03/22 04:50:38;;;;;;;18.80;11.27;;;;;;;3.50;86.39;102309.81;5997277;29;20416;-91
2022/03/22 04:57:02;;;;;;;18.92;10.82;;;;;;;3.41;91.43;102310.84;5981285;29;20049;-91
2022/03/22 05:00:05;;;;;;;18.40;11.15;;;;;;;3.41;89.07;102308.28;5981045;29;20054;-91
2022/03/22 05:03:08;;;;;;;17.67;11.02;;;;;;;3.40;92.08;102301.50;5990653;29;20061;-91
2022/03/22 05:09:30;;;;;;;20.70;11.43;;;;;;;3.42;90.60;102309.13;5993703;29;20077;-91
2022/03/22 05:12:32;;;;;;;21.65;11.15;;;;;;;3.40;89.97;102313.44;5998736;29;20129;-91
2022/03/22 05:15:34;;;;;;;18.10;11.13;;;;;;;3.36;90.28;102322.06;5998476;29;20054;-91
2022/03/22 05:18:36;;;;;;;20.67;11.95;;;;;;;3.32;90.81;102321.25;5996299;29;20037;-91
2022/03/22 05:21:38;;;;;;;22.73;11.15;;;;;;;3.39;90.38;102329.66;5979148;29;20133;-91
2022/03/22 05:24:40;;;;;;;18.30;11.30;;;;;;;3.33;93.10;102333.19;6000391;29;20057;-91
2022/03/22 05:27:42;;;;;;;19.20;11.50;;;;;;;3.28;90.79;102329.91;5991677;29;20044;-91
2022/03/22 05:30:43;;;;;;;19.17;11.93;;;;;;;3.25;91.12;102335.03;5980326;29;20042;-91
2022/03/22 05:33:45;;;;;;;18.65;11.05;;;;;;;3.26;93.32;102328.22;5997827;29;20050;-91
2022/03/22 05:36:47;;;;;;;17.33;10.82;;;;;;;3.41;86.74;102333.88;5995146;29;20148;-91
2022/03/22 05:39:49;;;;;;;21.42;11.75;;;;;;;3.41;88.06;102331.31;5995630;29;20419;-91
2022/03/22 05:42:51;;;;;;;20.85;11.32;;;;;;;3.48;88.55;102331.19;5994485;29;20054;-91
2022/03/22 05:45:53;;;;;;;18.95;11.48;;;;;;;3.38;87.91;102325.41;5980571;29;20108;-91
2022/03/22 05:48:56;;;;;;;18.23;10.45;;;;;;;3.41;90.51;102333.06;5978259;29;20058;-91
2022/03/22 05:51:59;;;;;;;17.77;10.82;;;;;;;3.50;87.68;102332.00;5977269;29;20050;-91
2022/03/22 05:55:01;;;;;;;18.23;10.57;;;;;;;3.49;90.21;102336.28;5999131;29;20045;-91
2022/03/22 05:58:03;;;;;;;18.80;11.30;;;;;;;3.50;92.40;102334.56;5996905;29;20050;-91
2022/03/22 06:01:07;;;;;;;19.80;10.85;;;;;;;3.70;84.67;102342.69;5990945;29;20492;-91
2022/03/22 06:04:12;;;;;;;19.00;11.63;;;;;;;3.71;85.98;102338.41;6005315;29;20081;-91
2022/03/22 06:07:14;;;;;;;19.60;11.32;;;;;;;3.70;86.58;102340.13;5981100;29;20677;-91
2022/03/22 06:10:16;;;;;;;19.85;11.82;;;;;;;3.71;87.68;102338.41;5999862;29;20046;-91
2022/03/22 06:13:18;;;;;;;21.42;11.65;;;;;;;3.74;85.39;102339.19;6003601;29;20050;-91
2022/03/22 06:16:24;;;;;;;16.00;10.82;;;;;;;3.74;88.35;102343.47;6001722;29;20061;-91
2022/03/22 06:19:26;;;;;;;20.77;12.77;;;;;;;3.73;90.43;102341.78;6002144;29;20136;-91
2022/03/22 06:22:28;;;;;;;25.50;12.27;;;;;;;3.85;86.67;102347.50;6004121;29;20054;-91
2022/03/22 06:25:31;;;;;;;16.98;10.65;;;;;;;3.83;87.32;102349.25;6002444;29;20076;-91
2022/03/22 06:28:33;;;;;;;18.65;11.52;;;;;;;3.85;86.90;102357.75;6003725;29;20063;-91
2022/03/22 06:31:35;;;;;;;19.10;11.20;;;;;;;3.96;86.04;102354.09;5994218;29;20061;-91
2022/03/22 06:34:37;;;;;;;17.83;11.38;;;;;;;4.01;86.00;102347.16;6002979;29;20046;-91
2022/03/22 06:37:39;;;;;;;18.58;11.27;;;;;;;4.03;86.97;102346.25;6001953;29;20126;-91
2022/03/22 06:40:41;;;;;;;18.60;11.73;;;;;;;4.05;87.77;102349.63;5986712;29;20042;-91
2022/03/22 06:43:44;;;;;;;17.70;11.63;;;;;;;4.07;86.97;102355.56;6004747;29;20054;-91
2022/03/22 06:46:45;;;;;;;19.05;11.65;;;;;;;4.10;89.12;102358.06;5986596;29;20046;-91
2022/03/22 06:49:47;;;;;;;21.30;11.70;;;;;;;4.14;88.80;102360.53;6005136;29;20789;-91
2022/03/22 06:52:49;;;;;;;19.65;11.50;;;;;;;4.28;86.59;102366.19;6003043;29;20053;-91
2022/03/22 06:55:52;;;;;;;23.88;12.00;;;;;;;4.37;85.44;102358.28;5985588;29;20061;-91
2022/03/22 06:58:54;;;;;;;21.55;11.70;;;;;;;4.54;85.04;102363.00;5986787;29;20098;-91
2022/03/22 07:01:56;;;;;;;20.63;12.43;;;;;;;4.51;83.83;102352.84;5984776;29;20128;-91
2022/03/22 07:04:59;;;;;;;18.88;11.70;;;;;;;4.59;84.68;102356.03;6001195;29;20519;-91
2022/03/22 07:08:01;;;;;;;20.50;12.23;;;;;;;4.68;82.61;102357.56;6001768;29;20813;-91
2022/03/22 07:14:26;;;;;;;18.85;12.00;;;;;;;4.91;81.82;102352.66;5997253;29;20042;-91
2022/03/22 07:17:28;;;;;;;19.33;12.10;;;;;;;5.02;81.16;102354.13;6005060;29;20042;-90
2022/03/22 07:20:29;;;;;;;21.80;11.63;;;;;;;5.09;79.89;102363.34;6006315;29;20057;-91
2022/03/22 07:23:33;;;;;;;18.35;11.68;;;;;;;5.21;81.21;102357.03;5997128;29;20101;-91
2022/03/22 07:26:36;;;;;;;21.02;12.65;;;;;;;5.30;80.58;102367.06;6005087;29;20054;-91
2022/03/22 07:29:39;;;;;;;20.70;11.70;;;;;;;5.40;80.56;102378.78;6005158;29;20500;-91
2022/03/22 07:32:43;;;;;;;18.58;11.77;;;;;;;5.52;80.03;102377.59;6008516;29;20046;-91
2022/03/22 07:35:45;;;;;;;17.30;10.80;;;;;;;5.66;82.13;102362.63;6007671;29;20131;-91
2022/03/22 07:38:47;;;;;;;18.05;11.65;;;;;;;5.79;81.35;102370.84;6010192;29;20048;-91
2022/03/22 07:41:49;;;;;;;19.35;12.02;;;;;;;5.98;79.81;102364.28;6001261;29;20084;-91
2022/03/22 07:44:52;;;;;;;22.83;12.35;;;;;;;6.10;76.64;102367.38;6002662;29;20046;-91
2022/03/22 07:47:54;;;;;;;21.85;11.38;;;;;;;6.23;75.09;102371.25;6008320;29;20034;-93
2022/03/22 07:54:16;;;;;;;17.55;11.93;;;;;;;6.43;72.71;102380.91;5996649;29;20052;-93
2022/03/22 07:57:21;;;;;;;21.77;14.50;;;;;;;6.49;71.42;102378.16;6002879;29;20046;-91
2022/03/22 08:00:23;;;;;;;21.05;12.55;;;;;;;6.57;72.55;102381.31;5977059;29;20165;-91
2022/03/22 08:03:28;;;;;;;22.00;13.02;;;;;;;6.64;73.42;102382.78;6003941;29;20156;-91
2022/03/22 08:06:31;;;;;;;18.02;12.43;;;;;;;6.76;74.14;102388.41;6002195;29;20049;-91
2022/03/22 08:09:33;;;;;;;17.95;11.70;;;;;;;6.82;74.31;102378.78;5985012;29;20050;-91
2022/03/22 08:12:35;;;;;;;20.75;12.73;;;;;;;6.93;75.94;102385.28;5998497;29;20058;-91
2022/03/22 08:15:36;;;;;;;22.30;12.40;;;;;;;6.97;75.09;102387.72;6002096;29;20053;-91
2022/03/22 08:18:38;;;;;;;23.30;14.00;;;;;;;7.12;76.34;102387.19;5967806;29;20127;-91
2022/03/22 08:21:40;;;;;;;21.00;12.43;;;;;;;7.34;74.44;102391.59;5980140;29;20065;-91
2022/03/22 08:24:42;;;;;;;20.77;12.45;;;;;;;7.50;70.82;102385.00;6001032;29;20125;-91
2022/03/22 08:27:44;;;;;;;17.33;12.20;;;;;;;7.66;70.53;102387.03;5999213;29;20588;-91
2022/03/22 08:30:46;;;;;;;20.80;12.00;;;;;;;7.78;71.29;102389.16;5975411;29;20091;-91
2022/03/22 08:33:48;;;;;;;20.48;12.32;;;;;;;7.91;68.31;102387.78;6002509;29;20057;-91
2022/03/22 08:36:50;;;;;;;21.95;12.10;;;;;;;8.01;69.83;102382.28;5985930;29;20556;-91
2022/03/22 08:39:53;;;;;;;19.83;12.85;;;;;;;8.14;68.88;102391.22;5998363;29;20489;-91
2022/03/22 08:42:56;;;;;;;18.48;12.38;;;;;;;8.18;66.17;102380.72;5994462;29;20058;-91
2022/03/22 08:45:58;;;;;;;20.50;12.77;;;;;;;8.27;65.98;102369.19;5990770;29;20038;-91
2022/03/22 08:49:00;;;;;;;19.02;11.52;;;;;;;8.41;65.39;102372.09;5994721;29;20045;-90
2022/03/22 08:52:02;;;;;;;19.92;12.15;;;;;;;8.60;64.51;102368.78;5994283;29;20048;-91
2022/03/22 08:55:07;;;;;;;21.55;12.13;;;;;;;8.81;62.45;102372.22;5993209;29;20519;-91
2022/03/22 08:58:09;;;;;;;21.98;12.73;;;;;;;8.91;61.00;102376.09;5980654;29;20058;-91
2022/03/22 09:01:11;;;;;;;20.73;12.05;;;;;;;9.05;60.59;102371.19;5994436;29;20042;-91
2022/03/22 09:07:51;;;;;;;22.48;12.55;;;;;;;9.26;61.48;102374.56;5999361;29;20049;-91
2022/03/22 09:10:53;;;;;;;21.52;12.55;;;;;;;9.38;61.76;102377.53;5979595;29;20053;-91
2022/03/22 09:13:55;;;;;;;23.23;12.35;;;;;;;9.52;60.56;102377.78;6001062;29;20458;-91
2022/03/22 09:16:56;;;;;;;22.05;12.48;;;;;;;9.65;60.61;102372.88;5988086;29;20050;-91
2022/03/22 09:19:58;;;;;;;20.13;12.48;;;;;;;9.80;60.49;102369.59;5996831;29;20050;-91
2022/03/22 09:23:01;;;;;;;21.63;13.02;;;;;;;9.91;58.73;102372.53;5980659;29;20086;-91
2022/03/22 09:26:03;;;;;;;19.50;12.25;;;;;;;9.93;57.86;102377.63;5996453;29;20049;-91
2022/03/22 09:29:07;;;;;;;19.75;12.65;;;;;;;10.06;59.03;102367.53;5997814;29;20615;-91
2022/03/22 09:32:09;;;;;;;26.98;12.73;;;;;;;10.12;57.19;102378.44;6001567;29;20110;-91
2022/03/22 09:35:13;;;;;;;19.98;13.15;;;;;;;10.26;56.55;102370.03;6003215;29;20069;-91
2022/03/22 09:38:15;;;;;;;21.33;12.23;;;;;;;10.35;56.94;102371.34;5982215;29;20396;-91
2022/03/22 09:41:18;;;;;;;22.85;13.85;;;;;;;10.44;56.78;102365.75;6002472;29;20061;-92
2022/03/22 09:44:21;;;;;;;19.27;12.48;;;;;;;10.54;57.52;102360.94;5997518;29;20157;-92
2022/03/22 09:47:23;;;;;;;20.33;13.73;;;;;;;10.65;56.92;102358.66;5975372;29;20196;-91
2022/03/22 09:53:48;;;;;;;21.25;13.30;;;;;;;10.85;55.38;102357.66;5994865;29;20081;-91
2022/03/22 09:56:52;;;;;;;21.40;13.65;;;;;;;11.02;55.42;102366.31;5992359;29;20077;-92
2022/03/22 09:59:54;;;;;;;20.17;13.68;;;;;;;11.14;53.26;102365.69;5986287;29;20456;-91
2022/03/22 10:02:56;;;;;;;20.30;13.43;;;;;;;11.20;51.94;102362.78;5980519;29;20050;-91
2022/03/22 10:06:02;;;;;;;20.48;13.00;;;;;;;11.30;51.73;102369.16;5983247;29;20730;-91
2022/03/22 10:09:07;;;;;;;20.75;12.57;;;;;;;11.45;51.30;102364.91;5995513;29;20042;-91
2022/03/22 10:12:12;;;;;;;18.23;12.95;;;;;;;11.50;48.73;102368.13;5992632;29;20568;-92
2022/03/22 10:15:17;;;;;;;20.25;12.98;;;;;;;11.59;48.87;102364.19;5992693;29;20054;-92
2022/03/22 10:18:26;;;;;;;19.33;12.57;;;;;;;11.70;49.58;102358.41;5993558;29;20065;-91
2022/03/22 10:21:28;;;;;;;22.10;13.27;;;;;;;11.76;50.05;102361.50;5983215;29;20053;-91
2022/03/22 10:24:47;;;;;;;18.80;12.70;;;;;;;11.92;50.06;102360.69;5999480;29;20054;-92
2022/03/22 10:27:54;;;;;;;18.20;12.60;;;;;;;12.06;48.63;102358.19;5991245;29;20051;-91
2022/03/22 10:31:00;;;;;;;20.13;13.18;;;;;;;12.17;49.58;102350.63;5992580;29;20344;-92
2022/03/22 10:34:02;;;;;;;19.25;13.00;;;;;;;12.21;47.73;102357.31;5994460;29;20511;-92
2022/03/22 10:37:04;;;;;;;18.20;12.43;;;;;;;12.37;49.68;102346.06;5992348;29;20034;-92
2022/03/22 10:40:35;;;;;;;22.63;12.90;;;;;;;12.46;48.24;102354.16;5996712;29;20056;-92
2022/03/22 10:43:37;;;;;;;;;;;;;;;12.70;49.50;102351.06;5992729;29;20050;-92
2022/03/22 10:46:42;;;;;;;22.33;13.80;;;;;;;12.86;47.97;102345.78;5994845;29;19932;-91
2022/03/22 10:49:44;;;;;;;23.17;13.10;;;;;;;12.92;47.04;102342.84;5989620;29;20046;-91
2022/03/22 10:52:59;;;;;;;19.10;12.50;;;;;;;12.91;45.84;102348.97;5990710;29;20081;-92
2022/03/22 10:56:03;;;;;;;17.40;11.57;;;;;;;13.06;47.09;102340.22;5996340;29;20407;-92
2022/03/22 10:59:05;;;;;;;21.10;12.40;;;;;;;13.18;44.59;102335.22;5990434;29;20057;-91
2022/03/22 11:02:08;;;;;;;22.40;12.48;;;;;;;13.31;43.76;102341.38;5992012;29;20045;-92
2022/03/22 11:05:10;;;;;;;19.60;12.45;;;;;;;13.40;42.52;102325.22;6003916;29;20077;-92
2022/03/22 11:08:12;;;;;;;22.05;11.95;;;;;;;13.47;41.39;102334.31;6005773;29;20045;-92
2022/03/22 11:11:15;;;;;;;20.80;13.02;;;;;;;13.52;42.20;102328.81;5993386;29;20668;-92
2022/03/22 11:14:18;;;;;;;20.50;12.15;;;;;;;13.53;43.54;102333.09;5989876;29;20089;-91
2022/03/22 11:17:22;;;;;;;19.67;11.88;;;;;;;13.66;43.52;102325.34;5996254;29;20499;-92
2022/03/22 11:20:25;;;;;;;20.20;12.57;;;;;;;13.76;42.33;102321.22;5970753;29;20041;-92
2022/03/22 11:23:30;;;;;;;18.15;12.30;;;;;;;13.82;41.34;102318.25;5995918;29;20054;-92
2022/03/22 11:26:39;;;;;;;19.70;11.60;;;;;;;14.05;42.58;102328.94;5995292;29;20170;-92
2022/03/22 11:29:42;;;;;;;18.00;12.33;;;;;;;14.24;42.91;102324.19;5987896;29;20042;-92
2022/03/22 11:36:20;;;;;;;18.67;12.60;;;;;;;14.33;41.48;102314.94;5997125;29;20473;-92
2022/03/22 11:42:54;;;;;;;23.83;12.23;;;;;;;14.55;40.83;102314.38;5994069;29;20053;-91
2022/03/22 11:45:56;;;;;;;19.42;12.57;;;;;;;14.61;42.67;102309.59;5988451;29;20050;-92
2022/03/22 11:49:10;;;;;;;21.30;12.20;;;;;;;14.75;41.29;102311.25;5988950;29;20491;-92
2022/03/22 11:52:12;;;;;;;19.55;12.18;;;;;;;14.75;38.99;102311.25;5980190;29;20420;-92
2022/03/22 11:55:18;;;;;;;21.27;11.52;;;;;;;14.86;39.83;102313.97;6008604;29;20049;-92
2022/03/22 11:58:27;;;;;;;18.65;12.25;;;;;;;14.86;38.57;102303.53;5983801;29;20049;-92
2022/03/22 12:02:06;;;;;;;24.95;13.52;;;;;;;14.95;41.63;102309.06;5997959;29;20495;-92
2022/03/22 12:05:09;;;;;;;18.65;12.45;;;;;;;14.96;39.51;102300.31;5982724;29;20058;-91
2022/03/22 12:08:16;;;;;;;20.58;11.93;;;;;;;15.05;40.45;102305.72;6007539;29;20050;-92
2022/03/22 12:11:20;;;;;;;18.45;12.00;;;;;;;15.21;39.17;102302.03;5988815;29;20042;-92
2022/03/22 12:14:29;;;;;;;21.67;13.55;;;;;;;15.19;40.08;102302.13;6006768;29;20666;-92
2022/03/22 12:17:36;;;;;;;19.98;13.35;;;;;;;15.10;39.91;102292.34;6004509;29;20054;-92
2022/03/22 12:20:39;;;;;;;17.45;11.45;;;;;;;15.24;38.45;102288.78;6005861;29;20050;-92
2022/03/22 12:23:41;;;;;;;15.40;10.90;;;;;;;15.32;34.73;102289.06;5979730;29;20058;-92
2022/03/22 12:26:43;;;;;;;20.10;12.40;;;;;;;15.47;38.52;102284.53;5996619;29;20053;-92
2022/03/22 12:29:45;;;;;;;17.35;11.57;;;;;;;15.52;35.19;102288.47;6005870;29;20068;-92
2022/03/22 12:32:59;;;;;;;18.17;11.05;;;;;;;15.66;37.83;102277.03;6001076;29;20057;-92
2022/03/22 12:36:01;;;;;;;17.65;12.93;;;;;;;15.82;38.89;102274.16;5997855;29;20058;-92
2022/03/22 12:39:03;;;;;;;18.65;12.93;;;;;;;15.93;39.39;102270.78;5984266;29;20059;-92
2022/03/22 12:42:06;;;;;;;22.65;12.85;;;;;;;16.02;38.89;102269.25;5999429;29;20041;-92
2022/03/22 12:45:11;;;;;;;20.67;12.98;;;;;;;16.15;39.50;102265.63;6002796;29;20271;-92
2022/03/22 12:48:20;;;;;;;21.15;13.07;;;;;;;16.26;38.80;102266.59;5990167;29;20053;-93
2022/03/22 12:51:25;;;;;;;19.58;12.93;;;;;;;16.29;35.94;102261.13;6026443;29;20056;-93
2022/03/22 12:54:32;;;;;;;19.77;13.25;;;;;;;16.29;33.36;102263.75;6019566;29;20512;-93
2022/03/22 12:57:37;;;;;;;16.33;11.68;;;;;;;16.26;35.67;102251.75;6019637;29;20046;-93
2022/03/22 13:00:40;;;;;;;16.90;11.90;;;;;;;16.36;35.53;102251.88;6016493;29;20663;-93
2022/03/22 13:03:51;;;;;;;18.13;12.80;;;;;;;16.38;34.48;102254.38;6008807;29;20073;-93
2022/03/22 13:06:57;;;;;;;18.05;12.95;;;;;;;16.50;36.42;102249.06;6010104;29;20050;-92
2022/03/22 13:13:24;;;;;;;16.23;11.30;;;;;;;16.73;35.51;102251.69;6007539;29;20141;-93
2022/03/22 13:16:30;;;;;;;18.02;11.93;;;;;;;16.81;34.56;102238.84;6007930;29;20053;-92
2022/03/22 13:19:32;;;;;;;19.58;12.30;;;;;;;16.93;33.57;102239.69;5984089;29;20054;-93
2022/03/22 13:22:34;;;;;;;17.75;11.75;;;;;;;16.95;34.88;102235.16;5990985;29;20068;-93
2022/03/22 13:25:39;;;;;;;20.75;11.45;;;;;;;17.07;35.61;102228.97;5997729;29;20061;-92
2022/03/22 13:28:41;;;;;;;17.77;11.43;;;;;;;17.17;33.08;102229.91;6000544;29;20050;-92
2022/03/22 13:32:01;;;;;;;19.20;11.10;;;;;;;17.28;34.18;102223.78;5997020;29;20114;-92
2022/03/22 13:35:04;;;;;;;16.83;10.70;;;;;;;17.47;33.55;102220.53;5977507;29;20054;-93
2022/03/22 13:38:13;;;;;;;15.48;10.60;;;;;;;17.49;33.37;102223.88;5987411;29;20049;-92
2022/03/22 13:41:26;;;;;;;18.50;11.88;;;;;;;17.51;34.61;102221.09;5992474;29;20065;-93
2022/03/22 13:44:30;;;;;;;19.80;11.50;;;;;;;17.53;34.25;102214.78;6005212;29;20042;-93
2022/03/22 13:47:52;;;;;;;15.68;11.77;;;;;;;17.51;30.44;102208.00;5988587;29;20049;-93
2022/03/22 13:50:55;;;;;;;17.48;11.32;;;;;;;17.59;31.78;102206.44;6005182;29;20153;-93
2022/03/22 13:53:57;;;;;;;17.58;10.68;;;;;;;17.68;30.79;102210.06;6007707;29;20073;-92
2022/03/22 13:57:12;;;;;;;14.23;10.88;;;;;;;17.76;31.44;102201.59;6006431;29;20512;-92
2022/03/22 14:00:21;;;;;;;18.05;11.13;;;;;;;17.84;33.62;102204.44;6007416;29;20061;-92
2022/03/22 14:03:25;;;;;;;16.08;10.77;;;;;;;17.90;30.83;102203.09;5999262;29;20054;-93
2022/03/22 14:06:28;;;;;;;17.75;11.50;;;;;;;17.95;32.59;102198.31;5998709;29;20064;-92
2022/03/22 14:09:31;;;;;;;15.25;10.25;;;;;;;17.97;31.12;102188.53;5989020;29;20053;-92
2022/03/22 14:12:35;;;;;;;17.77;11.68;;;;;;;18.00;32.36;102193.50;5981375;29;20133;-92
2022/03/22 14:15:39;;;;;;;17.60;11.25;;;;;;;18.09;30.01;102187.50;5991924;29;20046;-93
2022/03/22 14:18:41;;;;;;;18.88;11.85;;;;;;;18.15;30.13;102186.16;5990902;29;20057;-93
2022/03/22 14:21:43;;;;;;;15.38;11.50;;;;;;;18.20;32.78;102190.03;5994999;29;20046;-92
2022/03/22 14:24:45;;;;;;;20.73;11.07;;;;;;;18.26;31.13;102197.38;6024920;29;20053;-92
2022/03/22 14:27:51;;;;;;;15.15;10.20;;;;;;;18.35;29.96;102195.75;5982047;29;20511;-92
2022/03/22 14:30:53;;;;;;;14.07;8.65;;;;;;;18.38;29.33;102192.03;5973161;29;20528;-93
2022/03/22 14:33:56;;;;;;;15.80;9.32;;;;;;;18.35;29.12;102187.06;6010952;29;20050;-92
2022/03/22 14:36:58;;;;;;;16.35;9.43;;;;;;;18.38;28.35;102189.41;5996009;29;20082;-92
2022/03/22 14:40:00;;;;;;;15.52;9.73;;;;;;;18.39;29.42;102186.69;6017728;29;20042;-93
2022/03/22 14:43:07;;;;;;;16.02;8.55;;;;;;;18.42;31.08;102186.41;5994713;29;20801;-93
2022/03/22 14:46:09;;;;;;;14.88;9.27;;;;;;;18.50;30.05;102181.31;5990541;29;20134;-92
2022/03/22 14:49:12;;;;;;;13.60;9.70;;;;;;;18.50;29.57;102175.25;5990274;29;20110;-93
2022/03/22 14:55:35;;;;;;;19.10;11.27;;;;;;;18.52;29.54;102171.53;5996125;29;20056;-93